Time;durP1;ratioP1;P1;durP2;ratioP2;P2;SDS_P1;SDS_P2;PMS_P1;PMS_P2;Temp;Humidity;BMP_temperature;BMP_pressure;BME280_temperature;BME280_humidity;BME280_pressure;Samples;Min_cycle;Max_cycle;Signal;HPM_P1;HPM_P2
2023/12/21 00:02:00;;;;;;;14.75;2.25;;;9.00;99.90;;;;;;5003714;28;20445;-34
2023/12/21 00:04:25;;;;;;;11.18;2.33;;;9.00;99.90;;;;;;5005036;28;20140;-34
2023/12/21 00:06:51;;;;;;;12.95;2.40;;;9.00;99.90;;;;;;5005231;28;20120;-34
2023/12/21 00:09:18;;;;;;;9.40;2.85;;;9.00;99.90;;;;;;5007273;28;20081;-36
2023/12/21 00:11:44;;;;;;;12.45;3.00;;;9.00;99.90;;;;;;4985988;28;20058;-34
2023/12/21 00:14:10;;;;;;;13.05;2.35;;;9.00;99.90;;;;;;5003301;28;20049;-34
2023/12/21 00:16:36;;;;;;;12.18;3.05;;;9.10;99.90;;;;;;5003438;28;20490;-35
2023/12/21 00:19:01;;;;;;;11.80;2.60;;;9.10;99.90;;;;;;5000181;28;20060;-34
2023/12/21 00:21:27;;;;;;;11.07;2.33;;;9.10;99.90;;;;;;5006248;28;20046;-36
2023/12/21 00:23:53;;;;;;;13.45;2.35;;;9.10;99.90;;;;;;4990507;28;20072;-34
2023/12/21 00:26:19;;;;;;;11.73;2.78;;;9.10;99.90;;;;;;5005289;28;20077;-34
2023/12/21 00:28:44;;;;;;;14.63;2.85;;;9.10;99.90;;;;;;5005013;28;20050;-34
2023/12/21 00:31:10;;;;;;;12.90;2.17;;;9.10;99.90;;;;;;4984154;28;20121;-34
2023/12/21 00:33:37;;;;;;;15.60;3.50;;;9.10;99.90;;;;;;5003919;28;20049;-35
2023/12/21 00:36:03;;;;;;;13.85;3.38;;;9.10;99.90;;;;;;5003915;28;20060;-34
2023/12/21 00:38:29;;;;;;;12.90;2.85;;;9.10;99.90;;;;;;5002323;28;20576;-34
2023/12/21 00:40:56;;;;;;;15.35;2.80;;;9.10;99.90;;;;;;4985381;28;20061;-34
2023/12/21 00:43:22;;;;;;;11.57;1.88;;;9.10;99.90;;;;;;5004295;28;20630;-34
2023/12/21 00:45:47;;;;;;;9.50;2.28;;;9.10;99.90;;;;;;5004245;28;20145;-34
2023/12/21 00:48:14;;;;;;;11.20;2.45;;;9.10;99.90;;;;;;5004062;28;20060;-34
2023/12/21 00:50:40;;;;;;;13.98;3.08;;;9.10;99.90;;;;;;5005602;28;20058;-34
2023/12/21 00:53:06;;;;;;;12.95;2.17;;;9.10;99.90;;;;;;5007338;28;20050;-35
2023/12/21 00:55:32;;;;;;;13.20;2.60;;;9.10;99.90;;;;;;4985029;28;20322;-37
2023/12/21 00:57:58;;;;;;;11.98;2.28;;;9.10;99.90;;;;;;5002650;28;20425;-34
2023/12/21 01:00:24;;;;;;;8.68;2.17;;;9.10;99.90;;;;;;4988259;28;20054;-35
2023/12/21 01:02:50;;;;;;;8.57;1.88;;;9.10;99.90;;;;;;5000798;28;20046;-35
2023/12/21 01:05:15;;;;;;;9.52;2.30;;;9.10;99.90;;;;;;5002700;28;20568;-35
2023/12/21 01:07:42;;;;;;;12.32;1.75;;;9.10;99.90;;;;;;4995159;28;20050;-34
2023/12/21 01:10:08;;;;;;;9.07;2.30;;;9.10;99.90;;;;;;5004722;28;20046;-34
2023/12/21 01:12:34;;;;;;;8.77;1.75;;;9.10;99.90;;;;;;5008838;28;20143;-35
2023/12/21 01:15:01;;;;;;;13.57;2.13;;;9.10;99.90;;;;;;5007190;28;20069;-35
2023/12/21 01:17:26;;;;;;;13.93;2.72;;;9.10;99.90;;;;;;5003108;28;20099;-35
2023/12/21 01:19:52;;;;;;;13.80;1.73;;;9.10;99.90;;;;;;4986273;28;20049;-35
2023/12/21 01:22:19;;;;;;;9.00;2.08;;;9.10;99.90;;;;;;5001167;28;20050;-35
2023/12/21 01:24:45;;;;;;;9.00;1.98;;;9.10;99.90;;;;;;5008453;28;20115;-35
2023/12/21 01:27:11;;;;;;;8.18;1.60;;;9.10;99.90;;;;;;5005810;28;20042;-35
2023/12/21 01:29:37;;;;;;;10.15;1.70;;;9.10;99.90;;;;;;4983614;28;20386;-35
2023/12/21 01:32:03;;;;;;;9.48;1.77;;;9.10;99.90;;;;;;4999173;28;20438;-35
2023/12/21 01:34:28;;;;;;;6.80;1.60;;;9.00;99.90;;;;;;5001183;28;20051;-34
2023/12/21 01:36:57;;;;;;;12.32;2.00;;;9.00;99.90;;;;;;5005567;28;20042;-37
2023/12/21 01:39:23;;;;;;;16.30;1.60;;;9.00;99.90;;;;;;5004693;28;20505;-35
2023/12/21 01:41:49;;;;;;;5.82;1.20;;;9.00;99.90;;;;;;5000905;28;20038;-35
2023/12/21 01:44:15;;;;;;;9.18;1.40;;;9.00;99.90;;;;;;5004107;28;20199;-35
2023/12/21 01:46:43;;;;;;;8.00;1.80;;;9.00;99.90;;;;;;5004551;28;20544;-35
2023/12/21 01:49:09;;;;;;;12.38;1.83;;;9.00;99.90;;;;;;5003138;28;20054;-35
2023/12/21 01:51:34;;;;;;;6.82;1.40;;;8.90;99.90;;;;;;5001244;28;20508;-35
2023/12/21 01:54:03;;;;;;;8.18;1.42;;;9.00;99.90;;;;;;5010070;28;20048;-36
2023/12/21 01:56:31;;;;;;;9.55;1.52;;;9.00;99.90;;;;;;5004635;28;20183;-36
2023/12/21 01:58:57;;;;;;;8.25;1.40;;;9.00;99.90;;;;;;5001728;28;20042;-36
2023/12/21 02:01:23;;;;;;;9.27;1.20;;;9.00;99.90;;;;;;5003467;28;20419;-36
2023/12/21 02:03:49;;;;;;;8.25;1.88;;;9.00;99.90;;;;;;5005459;28;20524;-35
2023/12/21 02:06:14;;;;;;;14.75;1.58;;;9.00;99.90;;;;;;5002103;28;20135;-35
2023/12/21 02:08:40;;;;;;;10.73;1.90;;;9.00;99.90;;;;;;5002395;28;20045;-35
2023/12/21 02:11:08;;;;;;;10.45;1.80;;;9.00;99.90;;;;;;5001339;28;20046;-35
2023/12/21 02:13:34;;;;;;;10.57;1.90;;;9.00;99.90;;;;;;4999900;28;20057;-35
2023/12/21 02:16:09;;;;;;;9.65;1.95;;;9.00;99.90;;;;;;4986341;28;20077;-35
2023/12/21 02:18:35;;;;;;;8.73;1.67;;;9.00;99.90;;;;;;4992317;28;20062;-35
2023/12/21 02:21:02;;;;;;;14.05;1.98;;;9.00;99.90;;;;;;5005273;28;20045;-35
2023/12/21 02:23:32;;;;;;;14.20;2.47;;;9.00;99.90;;;;;;5004968;28;20522;-34
2023/12/21 02:25:58;;;;;;;10.02;2.35;;;9.00;99.90;;;;;;5003888;28;20049;-35
2023/12/21 02:28:24;;;;;;;10.90;1.63;;;9.00;99.90;;;;;;4999696;28;20058;-35
2023/12/21 02:30:49;;;;;;;11.40;1.92;;;9.00;99.90;;;;;;4996929;28;20061;-34
2023/12/21 02:33:15;;;;;;;13.90;2.45;;;9.00;99.90;;;;;;5001007;28;21597;-35
2023/12/21 02:35:41;;;;;;;12.48;1.95;;;9.00;99.90;;;;;;5000277;28;20404;-35
2023/12/21 02:38:06;;;;;;;11.65;2.47;;;8.90;99.90;;;;;;5007450;28;20088;-35
2023/12/21 02:40:32;;;;;;;18.10;3.03;;;8.90;99.90;;;;;;5002097;28;20248;-34
2023/12/21 02:42:58;;;;;;;14.40;2.03;;;8.90;99.90;;;;;;5006573;28;20049;-35
2023/12/21 02:45:23;;;;;;;13.30;2.08;;;8.90;99.90;;;;;;5001265;28;20045;-34
2023/12/21 02:47:49;;;;;;;17.48;2.42;;;8.90;99.90;;;;;;4992463;28;20061;-35
2023/12/21 02:50:15;;;;;;;13.13;2.38;;;8.90;99.90;;;;;;5004238;28;20050;-35
2023/12/21 02:52:40;;;;;;;13.80;2.10;;;9.00;99.90;;;;;;5003072;28;20132;-35
2023/12/21 02:55:06;;;;;;;8.57;2.03;;;9.00;99.90;;;;;;4998832;28;20080;-34
2023/12/21 02:57:32;;;;;;;13.98;2.20;;;9.00;99.90;;;;;;5002762;28;20054;-35
2023/12/21 02:59:58;;;;;;;11.18;2.03;;;9.00;99.90;;;;;;4999792;28;20046;-35
2023/12/21 03:02:23;;;;;;;13.52;2.65;;;9.00;99.90;;;;;;5002394;28;20566;-35
2023/12/21 03:04:49;;;;;;;13.55;2.58;;;9.00;99.90;;;;;;5002627;28;20067;-35
2023/12/21 03:07:15;;;;;;;8.90;2.20;;;9.00;99.90;;;;;;5003052;28;20129;-34
2023/12/21 03:09:40;;;;;;;13.40;3.17;;;9.00;99.90;;;;;;4986486;28;20466;-34
2023/12/21 03:12:06;;;;;;;11.07;2.53;;;9.00;99.90;;;;;;5004853;28;20465;-35
2023/12/21 03:14:32;;;;;;;10.88;2.65;;;8.90;99.90;;;;;;4997570;28;20050;-35
2023/12/21 03:16:57;;;;;;;12.07;3.20;;;8.90;99.90;;;;;;5007371;28;20104;-35
2023/12/21 03:19:23;;;;;;;12.27;2.42;;;8.90;99.90;;;;;;5001947;28;20145;-35
2023/12/21 03:21:49;;;;;;;13.80;2.78;;;8.90;99.90;;;;;;5005248;28;20132;-35
2023/12/21 03:24:14;;;;;;;10.43;2.67;;;8.90;99.90;;;;;;5003653;28;20053;-35
2023/12/21 03:26:41;;;;;;;14.90;2.88;;;8.90;99.90;;;;;;5006183;28;20085;-35
2023/12/21 03:29:07;;;;;;;11.18;2.80;;;8.90;99.90;;;;;;5002018;28;20056;-35
2023/12/21 03:31:33;;;;;;;9.40;2.53;;;8.90;99.90;;;;;;5004061;28;20050;-35
2023/12/21 03:33:58;;;;;;;12.15;2.90;;;8.90;99.90;;;;;;5004711;28;20527;-35
2023/12/21 03:36:26;;;;;;;15.75;2.72;;;8.90;99.90;;;;;;5006991;28;20420;-35
2023/12/21 03:38:52;;;;;;;9.57;2.50;;;9.00;99.90;;;;;;5003498;28;20084;-35
2023/12/21 03:41:18;;;;;;;12.50;3.03;;;8.90;99.90;;;;;;5003629;28;20074;-35
2023/12/21 03:43:43;;;;;;;8.88;2.55;;;8.90;99.90;;;;;;5006385;28;20141;-35
2023/12/21 03:46:09;;;;;;;13.90;2.90;;;8.90;99.90;;;;;;5002062;28;20050;-35
2023/12/21 03:48:35;;;;;;;11.50;2.55;;;8.90;99.90;;;;;;5005218;28;20129;-35
2023/12/21 03:51:01;;;;;;;13.88;2.30;;;8.90;99.90;;;;;;5003209;28;20137;-35
2023/12/21 03:53:27;;;;;;;13.60;2.15;;;8.90;99.90;;;;;;5002743;28;20048;-35
2023/12/21 03:55:52;;;;;;;13.48;2.88;;;8.90;99.90;;;;;;5005528;28;20053;-35
2023/12/21 03:58:18;;;;;;;8.25;1.65;;;8.90;99.90;;;;;;5003285;28;20062;-35
2023/12/21 04:00:44;;;;;;;7.93;1.65;;;8.90;99.90;;;;;;5003476;28;20042;-35
2023/12/21 04:03:09;;;;;;;11.10;2.50;;;8.90;99.90;;;;;;5009381;28;20053;-35
2023/12/21 04:05:38;;;;;;;12.60;2.35;;;8.90;99.90;;;;;;5006527;28;20412;-35
2023/12/21 04:08:04;;;;;;;17.00;2.00;;;8.90;99.90;;;;;;5006194;28;20061;-35
2023/12/21 04:10:29;;;;;;;13.50;2.15;;;8.90;99.90;;;;;;5007541;28;20431;-35
2023/12/21 04:12:55;;;;;;;8.07;1.90;;;8.90;99.90;;;;;;5008121;28;20092;-35
2023/12/21 04:15:21;;;;;;;9.10;2.38;;;8.90;99.90;;;;;;4988488;28;20127;-35
2023/12/21 04:17:46;;;;;;;8.77;1.90;;;8.90;99.90;;;;;;5007940;28;20058;-35
2023/12/21 04:20:12;;;;;;;14.65;2.55;;;8.90;99.90;;;;;;4999925;28;20129;-35
2023/12/21 04:22:38;;;;;;;7.53;1.80;;;9.00;99.90;;;;;;5004359;28;20411;-35
2023/12/21 04:25:03;;;;;;;11.68;2.25;;;9.00;99.90;;;;;;5002178;28;20151;-35
2023/12/21 04:27:29;;;;;;;8.98;2.15;;;9.00;99.90;;;;;;5006136;28;20457;-35
2023/12/21 04:29:55;;;;;;;8.40;1.80;;;8.90;99.90;;;;;;4990259;28;20053;-35
2023/12/21 04:32:20;;;;;;;8.23;2.00;;;8.90;99.90;;;;;;5007848;28;20471;-35
2023/12/21 04:34:46;;;;;;;9.27;2.75;;;8.90;99.90;;;;;;5000421;28;20054;-35
2023/12/21 04:37:12;;;;;;;12.40;2.00;;;8.90;99.90;;;;;;5003596;28;20057;-35
2023/12/21 04:39:38;;;;;;;8.13;1.77;;;9.00;99.90;;;;;;5004403;28;20185;-35
2023/12/21 04:42:04;;;;;;;11.00;2.05;;;8.90;99.90;;;;;;5004786;28;20050;-35
2023/12/21 04:44:30;;;;;;;12.52;2.40;;;9.00;99.90;;;;;;5000242;28;20050;-35
2023/12/21 04:46:55;;;;;;;9.38;1.80;;;9.00;99.90;;;;;;5003692;28;20483;-36
2023/12/21 04:49:24;;;;;;;8.60;2.03;;;9.00;99.90;;;;;;5005635;28;20057;-35
2023/12/21 04:51:49;;;;;;;9.63;2.28;;;9.00;99.90;;;;;;5009792;28;20065;-35
2023/12/21 04:54:15;;;;;;;10.05;1.63;;;9.10;99.90;;;;;;5003691;28;20456;-35
2023/12/21 04:56:41;;;;;;;6.70;1.60;;;9.10;99.90;;;;;;5004845;28;20523;-36
2023/12/21 04:59:07;;;;;;;11.82;1.75;;;9.10;99.90;;;;;;5011435;28;20042;-36
2023/12/21 05:01:33;;;;;;;9.10;1.42;;;9.20;99.90;;;;;;5003547;28;20050;-36
2023/12/21 05:04:03;;;;;;;7.72;1.25;;;9.20;99.90;;;;;;5005667;28;20073;-34
2023/12/21 05:06:29;;;;;;;7.78;1.50;;;9.20;99.90;;;;;;5006376;28;20136;-35
2023/12/21 05:08:56;;;;;;;6.72;1.35;;;9.20;99.90;;;;;;4989154;28;20138;-35
2023/12/21 05:11:22;;;;;;;8.63;1.17;;;9.30;99.90;;;;;;5006102;28;20049;-35
2023/12/21 05:13:48;;;;;;;7.28;1.67;;;9.30;99.90;;;;;;5003556;28;20084;-35
2023/12/21 05:16:14;;;;;;;7.03;1.20;;;9.30;99.90;;;;;;5006207;28;20057;-35
2023/12/21 05:18:39;;;;;;;8.63;1.95;;;9.40;99.90;;;;;;5003875;28;20063;-35
2023/12/21 05:21:09;;;;;;;12.05;1.73;;;9.40;99.90;;;;;;4983927;28;20497;-35
2023/12/21 05:23:35;;;;;;;7.63;1.42;;;9.40;99.90;;;;;;5005052;28;20062;-35
2023/12/21 05:26:00;;;;;;;10.07;1.48;;;9.40;99.90;;;;;;5005311;28;20045;-36
2023/12/21 05:28:26;;;;;;;7.18;1.15;;;9.40;99.90;;;;;;5007417;28;20046;-35
2023/12/21 05:30:52;;;;;;;12.35;1.75;;;9.50;99.90;;;;;;4987730;28;20042;-35
2023/12/21 05:33:17;;;;;;;9.05;1.33;;;9.50;99.90;;;;;;5009230;28;20543;-36
2023/12/21 05:35:43;;;;;;;10.27;1.42;;;9.50;99.90;;;;;;5005042;28;20046;-35
2023/12/21 05:38:09;;;;;;;4.43;1.00;;;9.50;99.90;;;;;;5004010;28;20049;-36
2023/12/21 05:40:35;;;;;;;7.30;1.05;;;9.50;99.90;;;;;;4999191;28;20058;-36
2023/12/21 05:43:00;;;;;;;10.95;2.20;;;9.50;99.90;;;;;;5003184;28;20050;-36
2023/12/21 05:45:26;;;;;;;7.07;1.00;;;9.50;99.90;;;;;;5008097;28;20050;-36
2023/12/21 05:47:52;;;;;;;9.82;1.38;;;9.50;99.90;;;;;;5001007;28;20053;-35
2023/12/21 05:50:17;;;;;;;6.25;1.30;;;9.50;99.90;;;;;;4997186;28;20043;-35
2023/12/21 05:52:44;;;;;;;5.82;1.10;;;9.50;99.90;;;;;;5005663;28;20104;-35
2023/12/21 05:55:14;;;;;;;8.57;2.13;;;9.50;99.90;;;;;;5001942;28;20061;-34
2023/12/21 05:57:41;;;;;;;6.55;1.27;;;9.50;99.90;;;;;;5005266;28;20057;-34
2023/12/21 06:00:07;;;;;;;6.35;0.95;;;9.40;99.90;;;;;;5003540;28;20113;-35
2023/12/21 06:02:33;;;;;;;7.85;2.00;;;9.40;99.90;;;;;;5001871;28;20054;-35
2023/12/21 06:04:59;;;;;;;6.38;1.02;;;9.40;99.90;;;;;;5004247;28;20508;-34
2023/12/21 06:07:25;;;;;;;10.80;1.40;;;9.30;99.90;;;;;;5003107;28;20496;-35
2023/12/21 06:09:50;;;;;;;6.10;1.23;;;9.30;99.90;;;;;;5008384;28;20478;-35
2023/12/21 06:12:16;;;;;;;9.27;1.65;;;9.30;99.90;;;;;;5003079;28;20673;-35
2023/12/21 06:14:42;;;;;;;9.18;1.65;;;9.30;99.90;;;;;;4985405;28;20057;-36
2023/12/21 06:17:09;;;;;;;8.02;2.00;;;9.30;99.90;;;;;;5001529;28;20062;-35
2023/12/21 06:19:35;;;;;;;11.73;1.92;;;9.30;99.90;;;;;;5001900;28;20199;-35
2023/12/21 06:22:01;;;;;;;8.32;1.63;;;9.30;99.90;;;;;;5002724;28;20464;-35
2023/12/21 06:24:26;;;;;;;12.65;1.83;;;9.30;99.90;;;;;;5005806;28;20136;-35
2023/12/21 06:26:52;;;;;;;7.38;1.88;;;9.30;99.90;;;;;;5002047;28;20559;-34
2023/12/21 06:29:18;;;;;;;9.18;1.30;;;9.30;99.90;;;;;;5000173;28;20045;-34
2023/12/21 06:31:44;;;;;;;8.48;1.42;;;9.30;99.90;;;;;;5000046;28;20503;-35
2023/12/21 06:34:09;;;;;;;9.18;1.30;;;9.30;99.90;;;;;;4999376;28;20060;-35
2023/12/21 06:36:35;;;;;;;14.30;1.60;;;9.30;99.90;;;;;;5002960;28;20519;-35
2023/12/21 06:39:01;;;;;;;9.00;1.55;;;9.30;99.90;;;;;;5004836;28;20092;-35
2023/12/21 06:41:27;;;;;;;7.75;1.00;;;9.30;99.90;;;;;;5007289;28;20038;-35
2023/12/21 06:43:53;;;;;;;6.25;1.75;;;9.30;99.90;;;;;;5003356;28;20050;-35
2023/12/21 06:46:20;;;;;;;7.70;2.08;;;9.30;99.90;;;;;;5004012;28;20184;-36
2023/12/21 06:48:46;;;;;;;7.18;1.05;;;9.40;99.90;;;;;;4987602;28;20185;-35
2023/12/21 06:51:13;;;;;;;11.88;1.50;;;9.30;99.90;;;;;;5002724;28;20062;-36
2023/12/21 06:53:39;;;;;;;7.13;1.35;;;9.30;99.90;;;;;;4986503;28;20050;-35
2023/12/21 06:56:06;;;;;;;3.30;1.15;;;9.20;99.90;;;;;;4997234;28;20060;-35
2023/12/21 06:58:31;;;;;;;7.75;1.55;;;9.20;99.90;;;;;;4999493;28;20057;-35
2023/12/21 07:00:57;;;;;;;8.30;1.60;;;9.20;99.90;;;;;;4980046;28;20124;-35
2023/12/21 07:03:23;;;;;;;7.93;1.35;;;9.20;99.90;;;;;;4999776;28;20194;-35
2023/12/21 07:05:52;;;;;;;4.28;1.00;;;9.10;99.90;;;;;;5001549;28;20058;-35
2023/12/21 07:08:18;;;;;;;6.97;1.20;;;9.10;99.90;;;;;;4999848;28;20501;-35
2023/12/21 07:10:44;;;;;;;8.05;1.60;;;9.10;99.90;;;;;;5002774;28;20053;-35
2023/12/21 07:13:10;;;;;;;6.70;1.17;;;9.00;99.90;;;;;;5000911;28;20054;-35
2023/12/21 07:15:36;;;;;;;4.45;1.58;;;9.00;99.90;;;;;;4998816;28;20049;-34
2023/12/21 07:18:02;;;;;;;9.52;1.75;;;9.00;99.90;;;;;;5003155;28;20062;-35
2023/12/21 07:20:30;;;;;;;7.00;2.10;;;9.00;99.90;;;;;;5003027;28;20671;-36
2023/12/21 07:22:56;;;;;;;7.50;1.77;;;9.00;99.90;;;;;;5004776;28;20559;-36
2023/12/21 07:25:22;;;;;;;5.20;1.50;;;9.00;99.90;;;;;;4984946;28;20053;-36
2023/12/21 07:27:48;;;;;;;10.40;1.38;;;9.00;99.90;;;;;;4999283;28;20050;-34
2023/12/21 07:30:14;;;;;;;15.77;1.90;;;9.00;99.90;;;;;;5006535;28;20049;-37
2023/12/21 07:32:39;;;;;;;9.25;2.25;;;9.00;99.90;;;;;;5006660;28;20050;-34
2023/12/21 07:35:05;;;;;;;4.88;1.42;;;9.00;99.90;;;;;;5004932;28;20058;-35
2023/12/21 07:37:31;;;;;;;4.68;1.35;;;9.00;99.90;;;;;;5004973;28;20089;-35
2023/12/21 07:39:57;;;;;;;8.15;1.40;;;9.00;99.90;;;;;;5007287;28;20077;-35
2023/12/21 07:42:23;;;;;;;8.80;1.45;;;9.00;99.90;;;;;;5005964;28;20056;-35
2023/12/21 07:44:48;;;;;;;7.60;1.17;;;9.00;99.90;;;;;;5003516;28;20061;-35
2023/12/21 07:47:14;;;;;;;4.57;1.80;;;9.00;99.90;;;;;;5007138;28;20058;-35
2023/12/21 07:49:40;;;;;;;7.63;1.27;;;9.00;99.90;;;;;;5005883;28;20045;-36
2023/12/21 07:52:05;;;;;;;5.80;1.10;;;9.00;99.90;;;;;;5005217;28;20277;-35
2023/12/21 07:54:31;;;;;;;6.35;1.60;;;9.00;99.90;;;;;;4985790;28;20066;-35
2023/12/21 07:56:57;;;;;;;7.03;1.90;;;9.00;99.90;;;;;;5006128;28;20072;-36
2023/12/21 07:59:24;;;;;;;7.25;1.70;;;9.00;99.90;;;;;;5008451;28;20042;-36
2023/12/21 08:01:49;;;;;;;8.45;1.30;;;9.00;99.90;;;;;;5004967;28;20444;-36
2023/12/21 08:04:16;;;;;;;7.93;1.42;;;9.00;99.90;;;;;;4988972;28;20056;-35
2023/12/21 08:06:42;;;;;;;9.57;2.22;;;9.00;99.90;;;;;;4990662;28;20046;-35
2023/12/21 08:09:07;;;;;;;5.03;1.35;;;9.00;99.90;;;;;;5006256;28;20080;-36
2023/12/21 08:11:33;;;;;;;5.82;1.10;;;9.00;99.90;;;;;;4988117;28;20050;-36
2023/12/21 08:14:00;;;;;;;6.10;1.02;;;9.00;99.90;;;;;;5008260;28;20066;-36
2023/12/21 08:16:26;;;;;;;5.47;1.17;;;9.10;99.90;;;;;;5008010;28;20417;-36
2023/12/21 08:18:52;;;;;;;4.18;1.55;;;9.10;99.90;;;;;;4994956;28;20054;-36
2023/12/21 08:21:17;;;;;;;4.85;1.17;;;9.00;99.90;;;;;;5008105;28;20054;-35
2023/12/21 08:23:44;;;;;;;6.55;1.40;;;9.10;99.90;;;;;;4988905;28;20042;-36
2023/12/21 08:26:10;;;;;;;6.15;1.52;;;9.10;99.90;;;;;;5003296;28;20064;-35
2023/12/21 08:28:37;;;;;;;7.70;1.20;;;9.10;99.90;;;;;;5007429;28;20053;-35
2023/12/21 08:31:03;;;;;;;6.63;1.30;;;9.10;99.90;;;;;;5007111;28;20046;-35
2023/12/21 08:33:30;;;;;;;7.60;1.40;;;9.10;99.90;;;;;;5003081;28;20524;-35
2023/12/21 08:35:56;;;;;;;6.22;1.45;;;9.10;99.90;;;;;;5006572;28;20140;-35
2023/12/21 08:38:21;;;;;;;4.32;1.20;;;9.10;99.90;;;;;;4987105;28;20168;-36
2023/12/21 08:40:47;;;;;;;10.70;1.83;;;9.10;99.90;;;;;;5006759;28;20053;-36
2023/12/21 08:43:14;;;;;;;7.80;1.25;;;9.10;99.90;;;;;;5004020;28;20069;-35
2023/12/21 08:45:40;;;;;;;7.97;1.63;;;9.10;99.90;;;;;;5007392;28;20081;-35
2023/12/21 08:48:06;;;;;;;8.40;1.27;;;9.10;99.90;;;;;;5006175;28;20097;-35
2023/12/21 08:50:31;;;;;;;10.88;2.05;;;9.10;99.90;;;;;;4999520;28;20060;-35
2023/12/21 08:53:00;;;;;;;10.88;1.52;;;9.10;99.90;;;;;;5006361;28;20057;-36
2023/12/21 08:55:27;;;;;;;10.18;1.90;;;9.20;99.90;;;;;;5003943;28;20046;-35
2023/12/21 08:57:53;;;;;;;9.80;1.35;;;9.10;99.90;;;;;;4981190;28;20073;-36
2023/12/21 09:00:19;;;;;;;12.48;1.35;;;9.10;99.90;;;;;;5001286;28;20493;-36
2023/12/21 09:02:45;;;;;;;6.80;1.48;;;9.20;99.90;;;;;;5006501;28;20046;-36
2023/12/21 09:05:13;;;;;;;9.73;1.85;;;9.10;99.90;;;;;;4988130;28;20054;-36
2023/12/21 09:07:39;;;;;;;7.05;1.52;;;9.20;99.90;;;;;;5005083;28;20049;-36
2023/12/21 09:10:06;;;;;;;8.40;1.40;;;9.20;99.90;;;;;;4999404;28;20113;-35
2023/12/21 09:12:32;;;;;;;9.07;1.77;;;9.20;99.90;;;;;;5007544;28;20088;-35
2023/12/21 09:14:58;;;;;;;11.60;1.40;;;9.20;99.90;;;;;;5004455;28;20053;-35
2023/12/21 09:17:23;;;;;;;12.05;1.60;;;9.20;99.90;;;;;;5006161;28;20389;-35
2023/12/21 09:19:49;;;;;;;4.35;0.85;;;9.20;99.90;;;;;;4998673;28;20080;-35
2023/12/21 09:22:15;;;;;;;8.70;1.67;;;9.30;99.90;;;;;;5003307;28;20171;-35
2023/12/21 09:24:40;;;;;;;4.90;2.17;;;9.20;99.90;;;;;;5004869;28;20477;-35
2023/12/21 09:27:06;;;;;;;5.82;1.02;;;9.30;99.90;;;;;;5007351;28;20056;-35
2023/12/21 09:29:32;;;;;;;6.15;1.08;;;9.30;99.90;;;;;;4997836;28;20084;-36
2023/12/21 09:31:59;;;;;;;6.85;0.95;;;9.30;99.90;;;;;;5005159;28;20099;-34
2023/12/21 09:34:24;;;;;;;6.45;1.00;;;9.30;99.90;;;;;;4988669;28;20050;-34
2023/12/21 09:36:52;;;;;;;11.48;3.58;;;9.40;99.90;;;;;;5006913;28;20050;-34
2023/12/21 09:39:19;;;;;;;7.93;1.05;;;9.40;99.90;;;;;;5006404;28;20097;-34
2023/12/21 09:41:45;;;;;;;5.95;1.10;;;9.50;99.90;;;;;;5004155;28;20050;-36
2023/12/21 09:44:16;;;;;;;11.38;1.38;;;9.50;99.90;;;;;;5002841;28;20057;-36
2023/12/21 09:46:44;;;;;;;6.28;1.05;;;9.50;99.90;;;;;;5007725;28;20088;-36
2023/12/21 09:49:11;;;;;;;8.15;1.55;;;9.50;99.90;;;;;;5002711;28;20065;-36
2023/12/21 09:51:37;;;;;;;9.10;1.83;;;9.50;99.90;;;;;;5003675;28;20050;-36
2023/12/21 09:54:04;;;;;;;12.23;1.25;;;9.50;99.90;;;;;;5004563;28;20042;-35
2023/12/21 09:56:31;;;;;;;13.38;1.60;;;9.50;99.90;;;;;;5008095;28;20045;-35
2023/12/21 09:58:58;;;;;;;10.40;1.20;;;9.60;99.90;;;;;;5004635;28;20088;-35
2023/12/21 10:01:24;;;;;;;7.97;1.17;;;9.60;99.90;;;;;;5002031;28;20058;-35
2023/12/21 10:03:50;;;;;;;6.63;1.17;;;9.60;99.90;;;;;;5002182;28;20060;-35
2023/12/21 10:06:16;;;;;;;10.00;1.50;;;9.60;99.90;;;;;;5003645;28;21127;-35
2023/12/21 10:08:42;;;;;;;9.98;1.00;;;9.60;99.90;;;;;;5003396;28;20528;-35
2023/12/21 10:11:08;;;;;;;8.80;1.38;;;9.60;99.90;;;;;;5007227;28;20054;-35
2023/12/21 10:13:35;;;;;;;9.57;1.08;;;9.70;99.90;;;;;;4997788;28;20141;-36
2023/12/21 10:16:03;;;;;;;8.02;2.00;;;9.70;99.90;;;;;;4998886;28;20045;-36
2023/12/21 10:18:29;;;;;;;5.72;0.88;;;9.70;99.90;;;;;;5004206;28;20064;-36
2023/12/21 10:20:59;;;;;;;6.30;1.50;;;9.70;99.90;;;;;;5005781;28;20508;-36
2023/12/21 10:23:25;;;;;;;10.85;1.40;;;9.70;99.90;;;;;;5000252;28;20054;-36
2023/12/21 10:25:52;;;;;;;8.60;1.15;;;9.80;99.90;;;;;;5002459;28;20041;-36
2023/12/21 10:28:22;;;;;;;7.05;1.35;;;9.90;99.90;;;;;;4985464;28;20072;-35
2023/12/21 10:30:57;;;;;;;9.60;0.80;;;9.90;99.90;;;;;;4986556;28;20050;-35
2023/12/21 10:33:25;;;;;;;5.70;1.30;;;10.00;99.90;;;;;;4999558;28;20483;-35
2023/12/21 10:35:51;;;;;;;6.00;0.77;;;10.00;99.90;;;;;;4998900;28;20050;-36
2023/12/21 10:38:18;;;;;;;3.95;1.15;;;10.10;99.90;;;;;;4986832;28;20477;-36
2023/12/21 10:40:45;;;;;;;6.43;1.08;;;10.20;99.90;;;;;;5002996;28;20061;-40
2023/12/21 10:43:14;;;;;;;6.85;1.45;;;10.20;99.90;;;;;;5003884;28;20464;-36
2023/12/21 10:45:44;;;;;;;9.60;1.20;;;10.20;99.90;;;;;;5002332;28;20057;-36
2023/12/21 10:48:13;;;;;;;7.25;1.38;;;10.20;99.90;;;;;;4993932;28;20058;-36
2023/12/21 10:50:39;;;;;;;5.78;1.20;;;10.10;99.90;;;;;;5004126;28;20054;-37
2023/12/21 10:53:05;;;;;;;5.50;0.82;;;10.10;99.90;;;;;;5005652;28;20058;-37
2023/12/21 10:55:31;;;;;;;8.30;1.00;;;9.90;99.90;;;;;;5004446;28;20060;-37
2023/12/21 10:57:58;;;;;;;8.93;1.50;;;9.90;99.90;;;;;;5001143;28;20049;-36
2023/12/21 11:00:24;;;;;;;6.10;0.93;;;9.90;99.90;;;;;;5003977;28;20057;-36
2023/12/21 11:02:51;;;;;;;4.97;0.80;;;9.90;99.90;;;;;;5002613;28;20456;-36
2023/12/21 11:05:22;;;;;;;11.50;1.55;;;9.90;99.90;;;;;;5004433;28;20050;-36
2023/12/21 11:07:53;;;;;;;8.48;1.65;;;10.00;99.90;;;;;;5008212;28;20046;-36
2023/12/21 11:10:22;;;;;;;9.30;1.35;;;10.10;99.90;;;;;;4988976;28;20077;-36
2023/12/21 11:12:48;;;;;;;6.80;1.35;;;10.10;99.90;;;;;;5007402;28;20055;-36
2023/12/21 11:15:16;;;;;;;6.72;1.35;;;10.20;99.90;;;;;;5010061;28;20424;-35
2023/12/21 11:17:44;;;;;;;6.28;1.10;;;10.20;99.90;;;;;;5004721;28;20112;-36
2023/12/21 11:20:14;;;;;;;9.63;1.38;;;10.10;99.90;;;;;;5001095;28;20050;-35
2023/12/21 11:22:40;;;;;;;7.80;1.20;;;10.00;99.90;;;;;;5004694;28;20042;-35
2023/12/21 11:25:11;;;;;;;10.48;2.10;;;10.00;99.90;;;;;;5006591;28;20064;-36
2023/12/21 11:27:39;;;;;;;7.85;1.63;;;10.00;99.90;;;;;;5002900;28;20191;-36
2023/12/21 11:30:12;;;;;;;12.52;2.03;;;9.90;99.90;;;;;;5005948;28;20053;-36
2023/12/21 11:32:40;;;;;;;9.07;1.48;;;10.00;99.90;;;;;;5006193;28;20060;-36
2023/12/21 11:35:22;;;;;;;8.25;1.17;;;10.00;99.90;;;;;;5001831;28;20137;-36
2023/12/21 11:37:49;;;;;;;;;;;10.00;99.90;;;;;;5005269;28;20496;-36
2023/12/21 11:40:17;;;;;;;8.02;1.67;;;10.00;99.90;;;;;;5007848;28;19933;-36
2023/12/21 11:42:46;;;;;;;9.73;1.52;;;10.00;99.90;;;;;;5005913;28;20042;-36
2023/12/21 11:45:19;;;;;;;9.27;1.75;;;9.90;99.90;;;;;;5007413;28;20046;-36
2023/12/21 11:47:45;;;;;;;6.93;1.52;;;9.90;99.90;;;;;;5008045;28;20489;-37
2023/12/21 11:50:11;;;;;;;8.63;1.20;;;10.00;99.90;;;;;;5008516;28;20050;-36
2023/12/21 11:52:37;;;;;;;5.60;1.10;;;9.90;99.90;;;;;;5007551;28;20443;-36
2023/12/21 11:55:04;;;;;;;7.95;1.23;;;9.90;99.90;;;;;;5008557;28;20077;-36
2023/12/21 11:57:31;;;;;;;9.45;1.20;;;9.90;99.90;;;;;;5000884;28;20057;-35
2023/12/21 12:00:07;;;;;;;11.70;1.33;;;9.90;99.90;;;;;;5002159;28;20509;-36
2023/12/21 12:02:36;;;;;;;7.65;1.67;;;9.90;99.90;;;;;;5001369;28;20076;-35
2023/12/21 12:05:05;;;;;;;9.45;1.25;;;9.90;99.90;;;;;;5003678;28;20137;-35
2023/12/21 12:07:34;;;;;;;7.85;1.60;;;9.90;99.90;;;;;;5003623;28;20045;-36
2023/12/21 12:10:00;;;;;;;7.50;1.42;;;9.90;99.90;;;;;;5004990;28;20108;-36
2023/12/21 12:12:26;;;;;;;8.98;1.70;;;10.00;99.90;;;;;;5007574;28;20211;-36
2023/12/21 12:14:54;;;;;;;7.05;1.15;;;9.90;99.90;;;;;;5006494;28;20084;-36
2023/12/21 12:17:20;;;;;;;8.07;1.33;;;9.90;99.90;;;;;;5004223;28;20061;-36
2023/12/21 12:19:46;;;;;;;8.23;1.20;;;9.90;99.90;;;;;;5001441;28;20128;-36
2023/12/21 12:22:12;;;;;;;8.82;1.42;;;9.90;99.90;;;;;;5004046;28;20058;-36
2023/12/21 12:24:39;;;;;;;14.30;2.72;;;10.00;99.90;;;;;;5001633;28;20057;-36
2023/12/21 12:27:05;;;;;;;12.23;1.83;;;10.10;99.90;;;;;;5004171;28;20066;-36
2023/12/21 12:29:31;;;;;;;15.82;1.95;;;10.10;99.90;;;;;;5006058;28;20052;-35
2023/12/21 12:31:57;;;;;;;15.75;1.70;;;10.10;99.90;;;;;;5001991;28;20046;-35
2023/12/21 12:34:23;;;;;;;12.63;2.63;;;10.10;99.90;;;;;;5002139;28;20370;-35
2023/12/21 12:36:54;;;;;;;12.40;4.15;;;10.30;99.90;;;;;;4999160;28;20852;-35
2023/12/21 12:39:21;;;;;;;12.02;2.33;;;10.40;99.90;;;;;;5004281;28;20060;-35
2023/12/21 12:41:47;;;;;;;10.43;2.05;;;10.40;99.90;;;;;;4999652;28;20045;-35
2023/12/21 12:44:13;;;;;;;15.90;2.17;;;10.40;99.90;;;;;;4981684;28;20197;-35
2023/12/21 12:46:39;;;;;;;9.57;1.85;;;10.50;99.90;;;;;;5000698;28;20045;-35
2023/12/21 12:49:04;;;;;;;9.15;1.50;;;10.50;99.90;;;;;;5007073;28;20054;-36